sensor_id;sensor_type;location;lat;lon;timestamp;pressure;altitude;pressure_sealevel;temperature;humidity
15263;BME280;7733;51.554;13.590;2023-05-01T00:01:08;100993.97;;;8.35;60.32
15263;BME280;7733;51.554;13.590;2023-05-01T00:03:34;100987.91;;;8.39;60.29
15263;BME280;7733;51.554;13.590;2023-05-01T00:06:02;101003.97;;;7.66;63.16
15263;BME280;7733;51.554;13.590;2023-05-01T00:08:29;101008.56;;;7.00;66.82
15263;BME280;7733;51.554;13.590;2023-05-01T00:10:55;101001.78;;;7.15;64.99
15263;BME280;7733;51.554;13.590;2023-05-01T00:13:21;100999.50;;;7.51;63.26
15263;BME280;7733;51.554;13.590;2023-05-01T00:15:49;100994.53;;;7.82;62.26
15263;BME280;7733;51.554;13.590;2023-05-01T00:18:15;100991.81;;;7.70;62.78
15263;BME280;7733;51.554;13.590;2023-05-01T00:20:41;101004.25;;;7.01;67.18
15263;BME280;7733;51.554;13.590;2023-05-01T00:23:07;100997.41;;;7.12;66.27
15263;BME280;7733;51.554;13.590;2023-05-01T00:25:33;100997.75;;;7.52;64.47
15263;BME280;7733;51.554;13.590;2023-05-01T00:27:59;100996.25;;;6.83;67.30
15263;BME280;7733;51.554;13.590;2023-05-01T00:30:25;100993.16;;;7.22;65.32
15263;BME280;7733;51.554;13.590;2023-05-01T00:32:52;100988.19;;;7.49;63.84
15263;BME280;7733;51.554;13.590;2023-05-01T00:35:17;100985.56;;;7.51;63.88
15263;BME280;7733;51.554;13.590;2023-05-01T00:37:43;100985.63;;;6.66;67.65
15263;BME280;7733;51.554;13.590;2023-05-01T00:40:09;100974.06;;;7.24;65.68
15263;BME280;7733;51.554;13.590;2023-05-01T00:42:36;100978.97;;;6.97;67.00
15263;BME280;7733;51.554;13.590;2023-05-01T00:45:05;100982.50;;;7.00;67.47
15263;BME280;7733;51.554;13.590;2023-05-01T00:47:34;100977.25;;;6.97;68.20
15263;BME280;7733;51.554;13.590;2023-05-01T00:50:01;100975.53;;;6.99;67.74
15263;BME280;7733;51.554;13.590;2023-05-01T00:52:27;100978.97;;;6.95;68.46
15263;BME280;7733;51.554;13.590;2023-05-01T00:54:53;100978.22;;;7.07;66.78
15263;BME280;7733;51.554;13.590;2023-05-01T00:57:22;100977.06;;;6.79;68.14
15263;BME280;7733;51.554;13.590;2023-05-01T00:59:48;100960.81;;;6.27;71.74
15263;BME280;7733;51.554;13.590;2023-05-01T01:02:14;100976.28;;;6.15;73.10
15263;BME280;7733;51.554;13.590;2023-05-01T01:04:45;100973.25;;;6.48;70.51
15263;BME280;7733;51.554;13.590;2023-05-01T01:10:52;100979.03;;;6.26;72.84
15263;BME280;7733;51.554;13.590;2023-05-01T01:14:02;100981.75;;;5.76;75.93
15263;BME280;7733;51.554;13.590;2023-05-01T01:16:58;100973.44;;;5.98;74.38
15263;BME280;7733;51.554;13.590;2023-05-01T01:22:38;100980.75;;;5.66;74.74
15263;BME280;7733;51.554;13.590;2023-05-01T01:25:54;100981.22;;;5.95;74.08
15263;BME280;7733;51.554;13.590;2023-05-01T01:28:39;100981.22;;;5.97;72.43
15263;BME280;7733;51.554;13.590;2023-05-01T01:31:28;100963.44;;;6.27;71.94
15263;BME280;7733;51.554;13.590;2023-05-01T01:34:03;100967.72;;;6.24;70.42
15263;BME280;7733;51.554;13.590;2023-05-01T01:36:57;100959.75;;;6.13;71.96
15263;BME280;7733;51.554;13.590;2023-05-01T01:39:49;100960.19;;;6.45;69.06
15263;BME280;7733;51.554;13.590;2023-05-01T01:42:25;100959.34;;;5.84;72.77
15263;BME280;7733;51.554;13.590;2023-05-01T01:45:03;100957.69;;;5.35;74.59
15263;BME280;7733;51.554;13.590;2023-05-01T01:47:32;100953.22;;;5.26;75.49
15263;BME280;7733;51.554;13.590;2023-05-01T01:50:05;100950.25;;;6.18;70.37
15263;BME280;7733;51.554;13.590;2023-05-01T01:52:34;100959.13;;;4.68;79.09
15263;BME280;7733;51.554;13.590;2023-05-01T01:55:07;100955.81;;;5.25;75.99
15263;BME280;7733;51.554;13.590;2023-05-01T01:57:36;100946.44;;;5.92;71.46
15263;BME280;7733;51.554;13.590;2023-05-01T02:00:05;100938.13;;;6.19;69.85
15263;BME280;7733;51.554;13.590;2023-05-01T02:02:37;100931.38;;;6.34;68.95
15263;BME280;7733;51.554;13.590;2023-05-01T02:05:10;100937.22;;;5.56;72.41
15263;BME280;7733;51.554;13.590;2023-05-01T02:07:39;100926.66;;;6.03;70.84
15263;BME280;7733;51.554;13.590;2023-05-01T02:10:10;100940.47;;;4.90;76.46
15263;BME280;7733;51.554;13.590;2023-05-01T02:12:37;100932.94;;;5.05;76.72
15263;BME280;7733;51.554;13.590;2023-05-01T02:15:06;100929.00;;;5.88;72.43
15263;BME280;7733;51.554;13.590;2023-05-01T02:17:35;100922.41;;;6.11;69.56
15263;BME280;7733;51.554;13.590;2023-05-01T02:20:04;100926.41;;;5.88;70.65
15263;BME280;7733;51.554;13.590;2023-05-01T02:22:32;100911.75;;;5.93;70.42
15263;BME280;7733;51.554;13.590;2023-05-01T02:24:59;100911.25;;;6.21;68.96
15263;BME280;7733;51.554;13.590;2023-05-01T02:27:34;100901.84;;;6.34;68.07
15263;BME280;7733;51.554;13.590;2023-05-01T02:30:00;100896.63;;;6.32;67.41
15263;BME280;7733;51.554;13.590;2023-05-01T02:32:26;100896.63;;;6.32;67.81
15263;BME280;7733;51.554;13.590;2023-05-01T02:34:53;100894.16;;;6.45;67.06
15263;BME280;7733;51.554;13.590;2023-05-01T02:37:19;100890.44;;;6.21;67.96
15263;BME280;7733;51.554;13.590;2023-05-01T02:39:45;100890.47;;;6.26;68.30
15263;BME280;7733;51.554;13.590;2023-05-01T02:42:15;100890.13;;;6.00;69.30
15263;BME280;7733;51.554;13.590;2023-05-01T02:44:52;100887.69;;;6.12;68.27
15263;BME280;7733;51.554;13.590;2023-05-01T02:47:22;100890.47;;;5.61;71.25
15263;BME280;7733;51.554;13.590;2023-05-01T02:49:50;100883.28;;;6.05;68.84
15263;BME280;7733;51.554;13.590;2023-05-01T02:52:18;100884.75;;;5.88;69.33
15263;BME280;7733;51.554;13.590;2023-05-01T02:54:44;100882.16;;;5.88;69.95
15263;BME280;7733;51.554;13.590;2023-05-01T02:57:11;100875.56;;;6.14;67.97
15263;BME280;7733;51.554;13.590;2023-05-01T02:59:38;100875.28;;;5.91;68.30
15263;BME280;7733;51.554;13.590;2023-05-01T03:02:05;100876.91;;;5.83;68.50
15263;BME280;7733;51.554;13.590;2023-05-01T03:04:32;100861.59;;;6.07;66.87
15263;BME280;7733;51.554;13.590;2023-05-01T03:06:57;100873.63;;;5.98;66.93
15263;BME280;7733;51.554;13.590;2023-05-01T03:09:23;100870.19;;;5.40;69.73
15263;BME280;7733;51.554;13.590;2023-05-01T03:11:49;100871.81;;;5.91;67.62
15263;BME280;7733;51.554;13.590;2023-05-01T03:14:15;100861.56;;;6.03;66.50
15263;BME280;7733;51.554;13.590;2023-05-01T03:16:40;100868.56;;;6.10;65.75
15263;BME280;7733;51.554;13.590;2023-05-01T03:19:06;100870.81;;;5.21;70.34
15263;BME280;7733;51.554;13.590;2023-05-01T03:21:32;100870.69;;;5.14;71.59
15263;BME280;7733;51.554;13.590;2023-05-01T03:23:59;100866.63;;;5.32;70.53
15263;BME280;7733;51.554;13.590;2023-05-01T03:26:25;100869.09;;;4.71;72.62
15263;BME280;7733;51.554;13.590;2023-05-01T03:28:51;100858.84;;;5.33;70.74
15263;BME280;7733;51.554;13.590;2023-05-01T03:31:17;100854.03;;;5.61;68.83
15263;BME280;7733;51.554;13.590;2023-05-01T03:33:43;100857.69;;;5.75;67.73
15263;BME280;7733;51.554;13.590;2023-05-01T03:36:09;100851.78;;;5.88;66.78
15263;BME280;7733;51.554;13.590;2023-05-01T03:38:37;100851.91;;;5.97;66.17
15263;BME280;7733;51.554;13.590;2023-05-01T03:41:03;100854.34;;;5.84;66.71
15263;BME280;7733;51.554;13.590;2023-05-01T03:43:30;100853.47;;;5.85;66.54
15263;BME280;7733;51.554;13.590;2023-05-01T03:45:57;100853.41;;;5.80;66.99
15263;BME280;7733;51.554;13.590;2023-05-01T03:48:23;100856.75;;;5.68;67.18
15263;BME280;7733;51.554;13.590;2023-05-01T03:50:50;100850.78;;;5.78;66.79
15263;BME280;7733;51.554;13.590;2023-05-01T03:53:16;100850.03;;;5.24;70.38
15263;BME280;7733;51.554;13.590;2023-05-01T03:55:42;100845.09;;;5.42;70.03
15263;BME280;7733;51.554;13.590;2023-05-01T03:58:08;100842.97;;;5.78;67.85
15263;BME280;7733;51.554;13.590;2023-05-01T04:00:36;100845.00;;;5.36;69.90
15263;BME280;7733;51.554;13.590;2023-05-01T04:03:03;100832.50;;;5.74;68.05
15263;BME280;7733;51.554;13.590;2023-05-01T04:05:29;100836.91;;;5.79;67.58
15263;BME280;7733;51.554;13.590;2023-05-01T04:07:56;100829.56;;;5.48;68.98
15263;BME280;7733;51.554;13.590;2023-05-01T04:10:22;100836.31;;;5.34;69.77
15263;BME280;7733;51.554;13.590;2023-05-01T04:12:48;100839.78;;;5.36;70.05
15263;BME280;7733;51.554;13.590;2023-05-01T04:15:13;100841.78;;;4.45;74.53
15263;BME280;7733;51.554;13.590;2023-05-01T04:17:40;100838.78;;;5.25;70.67
15263;BME280;7733;51.554;13.590;2023-05-01T04:20:08;100830.53;;;5.55;69.01
15263;BME280;7733;51.554;13.590;2023-05-01T04:22:35;100839.34;;;5.04;73.63
15263;BME280;7733;51.554;13.590;2023-05-01T04:25:02;100825.91;;;5.34;72.63
15263;BME280;7733;51.554;13.590;2023-05-01T04:27:29;100833.00;;;4.88;75.03
15263;BME280;7733;51.554;13.590;2023-05-01T04:29:55;100841.22;;;5.15;74.33
15263;BME280;7733;51.554;13.590;2023-05-01T04:32:21;100833.75;;;5.37;73.04
15263;BME280;7733;51.554;13.590;2023-05-01T04:34:48;100826.41;;;5.70;70.87
15263;BME280;7733;51.554;13.590;2023-05-01T04:37:13;100814.56;;;5.29;73.13
15263;BME280;7733;51.554;13.590;2023-05-01T04:39:42;100819.31;;;5.60;73.38
15263;BME280;7733;51.554;13.590;2023-05-01T04:42:08;100810.00;;;5.77;72.82
15263;BME280;7733;51.554;13.590;2023-05-01T04:44:33;100810.34;;;6.03;71.83
15263;BME280;7733;51.554;13.590;2023-05-01T04:47:02;100811.13;;;5.98;71.34
15263;BME280;7733;51.554;13.590;2023-05-01T04:49:28;100800.47;;;5.79;73.11
15263;BME280;7733;51.554;13.590;2023-05-01T04:51:54;100801.59;;;5.32;76.29
15263;BME280;7733;51.554;13.590;2023-05-01T04:54:20;100801.47;;;5.89;74.42
15263;BME280;7733;51.554;13.590;2023-05-01T04:56:47;100796.88;;;5.68;74.89
15263;BME280;7733;51.554;13.590;2023-05-01T04:59:12;100799.59;;;5.77;76.34
15263;BME280;7733;51.554;13.590;2023-05-01T05:01:38;100797.72;;;5.64;77.12
15263;BME280;7733;51.554;13.590;2023-05-01T05:04:04;100796.91;;;5.71;77.76
15263;BME280;7733;51.554;13.590;2023-05-01T05:06:30;100792.72;;;5.81;77.41
15263;BME280;7733;51.554;13.590;2023-05-01T05:08:56;100793.88;;;6.06;77.72
15263;BME280;7733;51.554;13.590;2023-05-01T05:11:22;100785.69;;;6.59;74.93
15263;BME280;7733;51.554;13.590;2023-05-01T05:13:48;100781.34;;;6.56;73.99
15263;BME280;7733;51.554;13.590;2023-05-01T05:16:14;100789.88;;;6.40;76.16
15263;BME280;7733;51.554;13.590;2023-05-01T05:18:39;100796.75;;;6.30;76.82
15263;BME280;7733;51.554;13.590;2023-05-01T05:21:06;100792.63;;;6.55;76.83
15263;BME280;7733;51.554;13.590;2023-05-01T05:23:36;100792.88;;;6.84;75.75
15263;BME280;7733;51.554;13.590;2023-05-01T05:26:02;100789.56;;;7.05;75.47
15263;BME280;7733;51.554;13.590;2023-05-01T05:28:28;100784.50;;;7.37;74.05
15263;BME280;7733;51.554;13.590;2023-05-01T05:30:55;100781.19;;;7.62;73.10
15263;BME280;7733;51.554;13.590;2023-05-01T05:33:21;100780.31;;;7.67;73.45
15263;BME280;7733;51.554;13.590;2023-05-01T05:35:50;100779.53;;;7.86;72.39
15263;BME280;7733;51.554;13.590;2023-05-01T05:38:16;100780.44;;;8.05;71.84
15263;BME280;7733;51.554;13.590;2023-05-01T05:40:42;100783.16;;;8.34;72.28
15263;BME280;7733;51.554;13.590;2023-05-01T05:43:08;100777.94;;;8.57;71.28
15263;BME280;7733;51.554;13.590;2023-05-01T05:45:35;100774.44;;;8.56;72.21
15263;BME280;7733;51.554;13.590;2023-05-01T05:48:02;100773.59;;;8.81;72.72
15263;BME280;7733;51.554;13.590;2023-05-01T05:50:28;100767.44;;;9.07;71.79
15263;BME280;7733;51.554;13.590;2023-05-01T05:52:54;100779.66;;;8.80;74.14
15263;BME280;7733;51.554;13.590;2023-05-01T05:55:20;100764.75;;;9.34;71.28
15263;BME280;7733;51.554;13.590;2023-05-01T05:57:46;100773.47;;;9.45;72.14
15263;BME280;7733;51.554;13.590;2023-05-01T06:00:13;100757.69;;;9.62;72.23
15263;BME280;7733;51.554;13.590;2023-05-01T06:02:39;100765.56;;;9.55;73.76
15263;BME280;7733;51.554;13.590;2023-05-01T06:05:06;100771.72;;;9.48;73.65
15263;BME280;7733;51.554;13.590;2023-05-01T06:07:32;100760.19;;;9.90;71.82
15263;BME280;7733;51.554;13.590;2023-05-01T06:09:58;100771.38;;;10.16;71.08
15263;BME280;7733;51.554;13.590;2023-05-01T06:12:29;100753.91;;;10.23;70.63
15263;BME280;7733;51.554;13.590;2023-05-01T06:14:56;100752.81;;;10.50;68.06
15263;BME280;7733;51.554;13.590;2023-05-01T06:17:23;100750.97;;;10.65;66.93
15263;BME280;7733;51.554;13.590;2023-05-01T06:19:49;100738.66;;;10.71;66.49
15263;BME280;7733;51.554;13.590;2023-05-01T06:22:17;100746.53;;;10.69;66.49
15263;BME280;7733;51.554;13.590;2023-05-01T06:24:43;100740.16;;;10.96;65.67
15263;BME280;7733;51.554;13.590;2023-05-01T06:27:09;100750.56;;;11.08;65.82
15263;BME280;7733;51.554;13.590;2023-05-01T06:29:36;100746.91;;;11.21;65.20
15263;BME280;7733;51.554;13.590;2023-05-01T06:32:02;100734.41;;;11.40;65.42
15263;BME280;7733;51.554;13.590;2023-05-01T06:34:28;100742.94;;;11.62;63.62
15263;BME280;7733;51.554;13.590;2023-05-01T06:36:54;100733.91;;;11.84;62.83
15263;BME280;7733;51.554;13.590;2023-05-01T06:39:20;100736.44;;;11.91;62.19
15263;BME280;7733;51.554;13.590;2023-05-01T06:41:47;100730.03;;;12.10;60.51
15263;BME280;7733;51.554;13.590;2023-05-01T06:44:13;100725.59;;;12.13;60.00
15263;BME280;7733;51.554;13.590;2023-05-01T06:46:39;100726.25;;;12.29;58.91
15263;BME280;7733;51.554;13.590;2023-05-01T06:49:05;100727.19;;;12.25;58.51
15263;BME280;7733;51.554;13.590;2023-05-01T06:51:31;100729.56;;;12.40;57.50
15263;BME280;7733;51.554;13.590;2023-05-01T06:53:57;100715.34;;;12.52;57.03
15263;BME280;7733;51.554;13.590;2023-05-01T06:56:23;100716.88;;;12.65;56.94
15263;BME280;7733;51.554;13.590;2023-05-01T06:58:49;100715.06;;;12.69;56.23
15263;BME280;7733;51.554;13.590;2023-05-01T07:01:15;100714.63;;;12.93;56.10
15263;BME280;7733;51.554;13.590;2023-05-01T07:03:41;100712.88;;;12.92;55.43
15263;BME280;7733;51.554;13.590;2023-05-01T07:06:07;100708.56;;;12.88;55.32
15263;BME280;7733;51.554;13.590;2023-05-01T07:08:32;100710.59;;;12.72;56.17
15263;BME280;7733;51.554;13.590;2023-05-01T07:10:58;100709.41;;;12.90;55.41
15263;BME280;7733;51.554;13.590;2023-05-01T07:13:24;100703.81;;;13.08;54.77
15263;BME280;7733;51.554;13.590;2023-05-01T07:15:50;100704.69;;;13.07;55.05
15263;BME280;7733;51.554;13.590;2023-05-01T07:18:16;100697.91;;;13.42;53.99
15263;BME280;7733;51.554;13.590;2023-05-01T07:20:42;100699.03;;;13.70;53.57
15263;BME280;7733;51.554;13.590;2023-05-01T07:23:08;100705.22;;;13.69;54.09
15263;BME280;7733;51.554;13.590;2023-05-01T07:25:35;100696.00;;;13.89;52.93
15263;BME280;7733;51.554;13.590;2023-05-01T07:28:06;100692.00;;;14.10;52.71
15263;BME280;7733;51.554;13.590;2023-05-01T07:30:34;100690.31;;;14.07;54.33
15263;BME280;7733;51.554;13.590;2023-05-01T07:33:00;100689.94;;;14.22;53.22
15263;BME280;7733;51.554;13.590;2023-05-01T07:35:26;100684.31;;;14.36;51.79
15263;BME280;7733;51.554;13.590;2023-05-01T07:37:52;100683.06;;;14.52;51.77
15263;BME280;7733;51.554;13.590;2023-05-01T07:40:19;100677.19;;;14.40;51.20
15263;BME280;7733;51.554;13.590;2023-05-01T07:42:45;100676.28;;;14.41;50.59
15263;BME280;7733;51.554;13.590;2023-05-01T07:45:11;100670.00;;;14.82;50.12
15263;BME280;7733;51.554;13.590;2023-05-01T07:47:37;100671.06;;;14.73;50.87
15263;BME280;7733;51.554;13.590;2023-05-01T07:50:03;100667.41;;;15.11;49.45
15263;BME280;7733;51.554;13.590;2023-05-01T07:52:29;100668.53;;;15.01;49.21
15263;BME280;7733;51.554;13.590;2023-05-01T07:54:55;100664.28;;;15.28;48.54
15263;BME280;7733;51.554;13.590;2023-05-01T07:57:21;100661.97;;;15.47;48.87
15263;BME280;7733;51.554;13.590;2023-05-01T07:59:52;100664.31;;;14.96;48.41
15263;BME280;7733;51.554;13.590;2023-05-01T08:02:19;100665.56;;;15.74;48.01
15263;BME280;7733;51.554;13.590;2023-05-01T08:04:44;100656.22;;;15.64;47.51
15263;BME280;7733;51.554;13.590;2023-05-01T08:07:12;100659.28;;;16.06;46.58
15263;BME280;7733;51.554;13.590;2023-05-01T08:09:38;100654.34;;;16.22;46.51
15263;BME280;7733;51.554;13.590;2023-05-01T08:12:04;100649.34;;;16.39;46.74
15263;BME280;7733;51.554;13.590;2023-05-01T08:14:30;100654.03;;;16.31;44.88
15263;BME280;7733;51.554;13.590;2023-05-01T08:16:56;100651.25;;;16.60;45.25
15263;BME280;7733;51.554;13.590;2023-05-01T08:19:22;100642.31;;;16.38;43.99
15263;BME280;7733;51.554;13.590;2023-05-01T08:21:48;100644.44;;;16.80;43.31
15263;BME280;7733;51.554;13.590;2023-05-01T08:24:13;100637.28;;;16.82;43.38
15263;BME280;7733;51.554;13.590;2023-05-01T08:26:39;100645.25;;;17.07;42.85
15263;BME280;7733;51.554;13.590;2023-05-01T08:29:05;100640.44;;;17.40;41.81
15263;BME280;7733;51.554;13.590;2023-05-01T08:31:31;100641.72;;;17.53;42.57
15263;BME280;7733;51.554;13.590;2023-05-01T08:33:56;100640.69;;;17.57;42.06
15263;BME280;7733;51.554;13.590;2023-05-01T08:36:22;100641.59;;;17.56;42.32
15263;BME280;7733;51.554;13.590;2023-05-01T08:38:48;100643.00;;;17.66;42.02
15263;BME280;7733;51.554;13.590;2023-05-01T08:41:19;100640.19;;;18.14;41.22
15263;BME280;7733;51.554;13.590;2023-05-01T08:43:46;100629.91;;;18.27;40.77
15263;BME280;7733;51.554;13.590;2023-05-01T08:46:24;100632.44;;;18.30;40.86
15263;BME280;7733;51.554;13.590;2023-05-01T08:48:57;100626.63;;;18.42;41.02
15263;BME280;7733;51.554;13.590;2023-05-01T08:51:26;100629.19;;;18.86;40.57
15263;BME280;7733;51.554;13.590;2023-05-01T08:53:55;100620.13;;;18.49;39.90
15263;BME280;7733;51.554;13.590;2023-05-01T08:56:22;100623.88;;;18.86;39.14
15263;BME280;7733;51.554;13.590;2023-05-01T08:58:52;100616.97;;;19.01;39.64
15263;BME280;7733;51.554;13.590;2023-05-01T09:01:21;100613.28;;;19.24;38.29
15263;BME280;7733;51.554;13.590;2023-05-01T09:03:49;100611.78;;;19.56;38.06
15263;BME280;7733;51.554;13.590;2023-05-01T09:06:15;100604.25;;;19.65;38.67
15263;BME280;7733;51.554;13.590;2023-05-01T09:08:41;100601.66;;;19.45;37.64
15263;BME280;7733;51.554;13.590;2023-05-01T09:11:07;100595.47;;;19.63;37.80
15263;BME280;7733;51.554;13.590;2023-05-01T09:13:33;100592.31;;;19.55;38.13
15263;BME280;7733;51.554;13.590;2023-05-01T09:15:59;100587.34;;;20.02;38.39
15263;BME280;7733;51.554;13.590;2023-05-01T09:18:26;100588.97;;;19.50;37.30
15263;BME280;7733;51.554;13.590;2023-05-01T09:20:53;100597.28;;;18.45;38.34
15263;BME280;7733;51.554;13.590;2023-05-01T09:23:19;100587.97;;;19.53;38.63
15263;BME280;7733;51.554;13.590;2023-05-01T09:25:45;100580.34;;;19.83;38.36
15263;BME280;7733;51.554;13.590;2023-05-01T09:28:11;100574.78;;;19.87;37.71
15263;BME280;7733;51.554;13.590;2023-05-01T09:30:38;100571.19;;;19.88;36.88
15263;BME280;7733;51.554;13.590;2023-05-01T09:33:14;100575.81;;;20.19;37.01
15263;BME280;7733;51.554;13.590;2023-05-01T09:35:55;100565.53;;;20.48;35.96
15263;BME280;7733;51.554;13.590;2023-05-01T09:38:24;100563.66;;;19.96;36.20
15263;BME280;7733;51.554;13.590;2023-05-01T09:40:52;100559.13;;;20.33;36.20
15263;BME280;7733;51.554;13.590;2023-05-01T09:43:26;100558.72;;;19.89;35.72
15263;BME280;7733;51.554;13.590;2023-05-01T09:46:19;100552.94;;;20.32;34.90
15263;BME280;7733;51.554;13.590;2023-05-01T09:48:59;100548.25;;;20.55;35.37
15263;BME280;7733;51.554;13.590;2023-05-01T09:51:28;100548.41;;;20.52;35.35
15263;BME280;7733;51.554;13.590;2023-05-01T09:54:03;100544.13;;;20.49;34.49
15263;BME280;7733;51.554;13.590;2023-05-01T09:56:32;100541.06;;;21.06;35.86
15263;BME280;7733;51.554;13.590;2023-05-01T09:59:24;100532.53;;;20.99;34.22
15263;BME280;7733;51.554;13.590;2023-05-01T10:01:55;100536.50;;;21.08;35.47
15263;BME280;7733;51.554;13.590;2023-05-01T10:04:32;100535.59;;;20.76;35.08
15263;BME280;7733;51.554;13.590;2023-05-01T10:07:13;100533.47;;;20.98;35.08
15263;BME280;7733;51.554;13.590;2023-05-01T10:09:39;100529.53;;;21.05;35.16
15263;BME280;7733;51.554;13.590;2023-05-01T10:12:06;100525.22;;;20.87;34.21
15263;BME280;7733;51.554;13.590;2023-05-01T10:14:32;100519.81;;;21.20;35.24
15263;BME280;7733;51.554;13.590;2023-05-01T10:17:16;100520.78;;;20.70;34.96
15263;BME280;7733;51.554;13.590;2023-05-01T10:19:44;100515.94;;;21.10;34.40
15263;BME280;7733;51.554;13.590;2023-05-01T10:22:11;100515.13;;;20.43;35.36
15263;BME280;7733;51.554;13.590;2023-05-01T10:24:37;100508.19;;;20.56;36.77
15263;BME280;7733;51.554;13.590;2023-05-01T10:27:06;100513.84;;;20.16;36.17
15263;BME280;7733;51.554;13.590;2023-05-01T10:29:34;100509.22;;;20.36;34.60
15263;BME280;7733;51.554;13.590;2023-05-01T10:32:05;100488.09;;;20.67;35.30
15263;BME280;7733;51.554;13.590;2023-05-01T10:34:37;100496.31;;;21.11;35.08
15263;BME280;7733;51.554;13.590;2023-05-01T10:37:13;100491.72;;;21.30;33.91
15263;BME280;7733;51.554;13.590;2023-05-01T10:39:40;100488.44;;;21.25;33.74
15263;BME280;7733;51.554;13.590;2023-05-01T10:42:10;100478.66;;;21.55;34.04
15263;BME280;7733;51.554;13.590;2023-05-01T10:44:40;100490.84;;;21.30;34.19
15263;BME280;7733;51.554;13.590;2023-05-01T10:50:06;100469.97;;;21.52;33.67
15263;BME280;7733;51.554;13.590;2023-05-01T10:55:41;100458.84;;;22.20;33.24
15263;BME280;7733;51.554;13.590;2023-05-01T10:58:12;100453.13;;;22.54;32.45
15263;BME280;7733;51.554;13.590;2023-05-01T11:00:39;100447.91;;;21.94;32.60
15263;BME280;7733;51.554;13.590;2023-05-01T11:06:05;100428.88;;;22.86;31.56
15263;BME280;7733;51.554;13.590;2023-05-01T11:08:36;100445.28;;;22.08;33.25
15263;BME280;7733;51.554;13.590;2023-05-01T11:14:05;100428.94;;;20.91;34.37
15263;BME280;7733;51.554;13.590;2023-05-01T11:21:49;100421.66;;;22.01;32.77
15263;BME280;7733;51.554;13.590;2023-05-01T11:24:15;100415.22;;;21.75;33.08
15263;BME280;7733;51.554;13.590;2023-05-01T11:26:44;100418.13;;;21.26;34.38
15263;BME280;7733;51.554;13.590;2023-05-01T11:29:11;100408.78;;;21.17;32.93
15263;BME280;7733;51.554;13.590;2023-05-01T11:31:38;100415.66;;;21.83;33.47
15263;BME280;7733;51.554;13.590;2023-05-01T11:34:04;100411.41;;;21.79;32.30
15263;BME280;7733;51.554;13.590;2023-05-01T11:36:50;100403.22;;;21.68;32.60
15263;BME280;7733;51.554;13.590;2023-05-01T11:39:18;100389.84;;;21.82;33.05
15263;BME280;7733;51.554;13.590;2023-05-01T11:41:45;100394.38;;;21.06;34.25
15263;BME280;7733;51.554;13.590;2023-05-01T11:44:15;100389.44;;;22.04;32.82
15263;BME280;7733;51.554;13.590;2023-05-01T11:46:41;100386.75;;;21.90;33.03
15263;BME280;7733;51.554;13.590;2023-05-01T11:49:07;100378.28;;;22.54;32.71
15263;BME280;7733;51.554;13.590;2023-05-01T11:51:34;100385.19;;;22.30;31.24
15263;BME280;7733;51.554;13.590;2023-05-01T11:54:08;100380.03;;;22.12;31.14
15263;BME280;7733;51.554;13.590;2023-05-01T11:56:35;100377.56;;;22.24;32.24
15263;BME280;7733;51.554;13.590;2023-05-01T11:59:16;100372.69;;;22.71;31.38
15263;BME280;7733;51.554;13.590;2023-05-01T12:01:46;100367.91;;;22.76;31.18
15263;BME280;7733;51.554;13.590;2023-05-01T12:04:22;100366.31;;;22.88;31.36
15263;BME280;7733;51.554;13.590;2023-05-01T12:06:48;100367.91;;;22.76;30.97
15263;BME280;7733;51.554;13.590;2023-05-01T12:09:22;100358.50;;;22.42;31.17
15263;BME280;7733;51.554;13.590;2023-05-01T12:11:51;100362.75;;;22.73;31.87
15263;BME280;7733;51.554;13.590;2023-05-01T12:14:19;100355.78;;;22.44;32.07
15263;BME280;7733;51.554;13.590;2023-05-01T12:16:46;100348.72;;;22.43;32.55
15263;BME280;7733;51.554;13.590;2023-05-01T12:19:13;100349.28;;;22.34;32.77
15263;BME280;7733;51.554;13.590;2023-05-01T12:21:40;100348.16;;;22.09;32.28
15263;BME280;7733;51.554;13.590;2023-05-01T12:24:15;100344.03;;;22.18;31.46
15263;BME280;7733;51.554;13.590;2023-05-01T12:26:42;100345.69;;;22.06;30.85
15263;BME280;7733;51.554;13.590;2023-05-01T12:29:09;100341.25;;;21.91;32.08
15263;BME280;7733;51.554;13.590;2023-05-01T12:31:44;100323.28;;;21.79;31.41
15263;BME280;7733;51.554;13.590;2023-05-01T12:34:11;100326.69;;;21.52;32.33
15263;BME280;7733;51.554;13.590;2023-05-01T12:36:37;100327.50;;;21.83;32.33
15263;BME280;7733;51.554;13.590;2023-05-01T12:39:09;100322.44;;;22.50;32.64
15263;BME280;7733;51.554;13.590;2023-05-01T12:41:43;100313.91;;;22.57;31.77
15263;BME280;7733;51.554;13.590;2023-05-01T12:47:03;100312.94;;;22.58;31.81
15263;BME280;7733;51.554;13.590;2023-05-01T12:49:30;100295.25;;;22.70;30.03
15263;BME280;7733;51.554;13.590;2023-05-01T12:52:00;100299.06;;;21.82;30.27
15263;BME280;7733;51.554;13.590;2023-05-01T12:54:31;100297.53;;;22.35;31.17
15263;BME280;7733;51.554;13.590;2023-05-01T12:57:11;100282.94;;;22.94;30.24
15263;BME280;7733;51.554;13.590;2023-05-01T12:59:41;100281.44;;;22.63;30.42
15263;BME280;7733;51.554;13.590;2023-05-01T13:02:11;100273.03;;;22.55;31.03
15263;BME280;7733;51.554;13.590;2023-05-01T13:04:37;100267.72;;;23.34;30.50
15263;BME280;7733;51.554;13.590;2023-05-01T13:07:15;100262.91;;;23.52;30.01
15263;BME280;7733;51.554;13.590;2023-05-01T13:09:58;100263.38;;;23.72;29.41
15263;BME280;7733;51.554;13.590;2023-05-01T13:12:25;100256.19;;;23.72;29.72
15263;BME280;7733;51.554;13.590;2023-05-01T13:14:52;100253.59;;;23.32;30.19
15263;BME280;7733;51.554;13.590;2023-05-01T13:20:08;100247.47;;;23.56;29.87
15263;BME280;7733;51.554;13.590;2023-05-01T13:22:36;100252.09;;;24.05;28.77
15263;BME280;7733;51.554;13.590;2023-05-01T13:25:14;100246.22;;;23.87;29.59
15263;BME280;7733;51.554;13.590;2023-05-01T13:27:40;100248.00;;;23.99;29.29
15263;BME280;7733;51.554;13.590;2023-05-01T13:30:09;100243.41;;;24.38;29.48
15263;BME280;7733;51.554;13.590;2023-05-01T13:32:39;100235.84;;;24.55;28.76